National Weather Service Raw Text Product

Displaying AFOS PIL: TAFFOD Received: 2018-08-11 07:29 UTC


754 
FTUS43 KDMX 110729 AAE
TAFFOD
TAF AMD
KFOD 110729Z 1107/1206 VRB03KT 2SM BR BKN002
      TEMPO 1108/1112 1/2SM FG VV002
     FM111300 VRB02KT 6SM BR FEW200
     FM111400 14004KT P6SM SCT250=